Time;durP1;ratioP1;P1;durP2;ratioP2;P2;SDS_P1;SDS_P2;PMS_P1;PMS_P2;Temp;Humidity;BMP_temperature;BMP_pressure;BME280_temperature;BME280_humidity;BME280_pressure;Samples;Min_cycle;Max_cycle;Signal;HPM_P1;HPM_P2
2022/06/18 00:01:44;;;;;;;;;;;;;;;22.15;37.01;101110.91;4902471;28;121674;-66
2022/06/18 00:04:12;;;;;;;;;;;;;;;22.12;37.14;101116.22;4924057;28;128024;-61
2022/06/18 00:06:58;;;;;;;;;;;;;;;22.06;37.18;101097.19;4919295;28;98811;-66
2022/06/18 00:09:41;;;;;;;;;;;;;;;22.03;37.15;101099.78;4920154;28;120721;-61
2022/06/18 00:15:11;;;;;;;;;;;;;;;21.97;37.35;101095.63;4904335;28;98129;-65
2022/06/18 00:17:37;;;;;;;;;;;;;;;21.95;37.31;101095.13;4926722;28;99036;-66
2022/06/18 00:20:03;;;;;;;;;;;;;;;21.92;37.43;101096.59;4922080;28;126739;-66
2022/06/18 00:22:29;;;;;;;;;;;;;;;21.88;37.52;101097.59;4923967;28;97709;-66
2022/06/18 00:24:55;;;;;;;;;;;;;;;21.87;37.50;101095.97;4903759;28;128742;-66
2022/06/18 00:27:21;;;;;;;;;;;;;;;21.83;37.49;101093.09;4906079;28;98978;-66
2022/06/18 00:29:48;;;;;;;;;;;;;;;21.79;37.65;101092.94;4920282;28;108322;-61
2022/06/18 00:32:14;;;;;;;;;;;;;;;21.79;37.69;101095.69;4927936;28;97620;-62
2022/06/18 00:34:40;;;;;;;;;;;;;;;21.75;37.66;101093.91;4903802;28;115349;-66
2022/06/18 00:37:06;;;;;;;;;;;;;;;21.73;37.72;101096.16;4903752;28;99112;-66
2022/06/18 00:39:32;;;;;;;;;;;;;;;21.69;37.71;101079.59;4918331;28;99060;-66
2022/06/18 00:42:01;;;;;;;;;;;;;;;21.66;37.92;101073.94;4926245;28;122878;-66
2022/06/18 00:44:37;;;;;;;;;;;;;;;21.62;37.91;101073.00;4908306;28;124729;-66
2022/06/18 00:47:21;;;;;;;;;;;;;;;21.58;38.02;101075.59;4916376;28;98396;-61
2022/06/18 00:50:08;;;;;;;;;;;;;;;21.53;37.96;101073.00;4922236;28;98114;-61
2022/06/18 00:52:38;;;;;;;;;;;;;;;21.51;38.31;101078.00;4924984;28;97941;-66
2022/06/18 00:55:32;;;;;;;;;;;;;;;21.46;38.34;101079.00;4928792;28;127245;-62
2022/06/18 00:58:01;;;;;;;;;;;;;;;21.43;38.19;101081.59;4921881;28;99358;-66
2022/06/18 01:00:42;;;;;;;;;;;;;;;21.39;38.19;101078.69;4917749;28;123376;-66
2022/06/18 01:03:25;;;;;;;;;;;;;;;21.38;38.42;101074.34;4925152;28;111913;-66
2022/06/18 01:05:50;;;;;;;;;;;;;;;21.35;38.42;101074.97;4904911;28;97981;-66
2022/06/18 01:08:17;;;;;;;;;;;;;;;21.32;38.63;101068.19;4889363;28;99186;-61
2022/06/18 01:10:50;;;;;;;;;;;;;;;21.29;38.47;101060.59;4919767;28;118420;-66
2022/06/18 01:13:19;;;;;;;;;;;;;;;21.29;38.63;101070.75;4926599;28;97967;-66
2022/06/18 01:15:45;;;;;;;;;;;;;;;21.26;38.91;101072.22;4917221;28;98901;-66
2022/06/18 01:18:13;;;;;;;;;;;;;;;21.26;38.75;101063.19;4908638;28;126947;-67
2022/06/18 01:20:51;;;;;;;;;;;;;;;21.24;38.67;101059.97;4923025;28;128473;-66
2022/06/18 01:23:21;;;;;;;;;;;;;;;21.23;38.66;101066.59;4901937;28;97806;-66
2022/06/18 01:25:47;;;;;;;;;;;;;;;21.22;38.57;101070.44;4900417;28;113875;-62
2022/06/18 01:28:16;;;;;;;;;;;;;;;21.20;38.86;101068.03;4908605;28;99120;-66
2022/06/18 01:30:42;;;;;;;;;;;;;;;21.19;38.92;101060.16;4918775;28;98127;-66
2022/06/18 01:33:10;;;;;;;;;;;;;;;21.15;38.95;101060.00;4921029;28;121908;-66
2022/06/18 01:35:38;;;;;;;;;;;;;;;21.12;39.04;101057.09;4903230;28;99012;-66
2022/06/18 01:38:04;;;;;;;;;;;;;;;21.09;39.06;101064.81;4911736;28;98323;-66
2022/06/18 01:40:48;;;;;;;;;;;;;;;21.09;39.21;101061.28;4923893;28;98094;-66
2022/06/18 01:43:15;;;;;;;;;;;;;;;21.08;39.01;101057.72;4922841;28;120226;-66
2022/06/18 01:45:41;;;;;;;;;;;;;;;21.08;39.24;101051.44;4917817;28;128227;-67
2022/06/18 01:48:16;;;;;;;;;;;;;;;21.06;39.22;101051.78;4914469;28;127365;-66
2022/06/18 01:51:14;;;;;;;;;;;;;;;21.03;39.24;101041.47;4901702;28;98327;-62
2022/06/18 01:53:43;;;;;;;;;;;;;;;21.00;39.42;101041.28;4915494;28;97991;-66
2022/06/18 01:56:13;;;;;;;;;;;;;;;20.97;39.45;101033.72;4919770;28;99616;-66
2022/06/18 01:58:46;;;;;;;;;;;;;;;20.94;39.45;101040.63;4902282;28;121150;-66
2022/06/18 02:01:32;;;;;;;;;;;;;;;20.90;39.53;101034.19;4887300;28;120652;-63
2022/06/18 02:03:59;;;;;;;;;;;;;;;20.88;39.52;101028.25;4896200;28;98251;-66
2022/06/18 02:06:25;;;;;;;;;;;;;;;20.87;39.64;101034.03;4911021;28;122344;-66
2022/06/18 02:08:51;;;;;;;;;;;;;;;20.86;39.60;101029.69;4903532;28;105388;-62
2022/06/18 02:11:17;;;;;;;;;;;;;;;20.83;39.75;101031.97;4930481;28;98424;-62
2022/06/18 02:14:09;;;;;;;;;;;;;;;20.82;39.82;101027.59;4934061;28;103888;-66
2022/06/18 02:16:43;;;;;;;;;;;;;;;20.81;40.03;101028.72;4906699;28;98984;-62
2022/06/18 02:19:09;;;;;;;;;;;;;;;20.78;40.15;101021.16;4920029;28;128155;-62
2022/06/18 02:21:40;;;;;;;;;;;;;;;20.77;40.11;101018.75;4930125;28;97996;-62
2022/06/18 02:24:06;;;;;;;;;;;;;;;20.73;40.19;101013.09;4918473;28;98615;-66
2022/06/18 02:26:32;;;;;;;;;;;;;;;20.67;40.35;101008.09;4907020;28;98538;-66
2022/06/18 02:28:58;;;;;;;;;;;;;;;20.61;40.43;101012.13;4909392;28;127565;-66
2022/06/18 02:31:30;;;;;;;;;;;;;;;20.56;40.72;101008.44;4907603;28;121257;-62
2022/06/18 02:33:57;;;;;;;;;;;;;;;;;;4918192;28;119244;-66
2022/06/18 02:36:25;;;;;;;;;;;;;;;20.50;40.76;101015.19;4928264;28;98853;-66
2022/06/18 02:39:10;;;;;;;;;;;;;;;20.46;40.72;101013.38;4917034;28;98340;-66
2022/06/18 02:41:40;;;;;;;;;;;;;;;20.42;40.79;101007.75;4909791;28;123511;-66
2022/06/18 02:44:09;;;;;;;;;;;;;;;20.39;41.22;101013.84;4914994;28;120650;-62
2022/06/18 02:46:35;;;;;;;;;;;;;;;20.35;41.19;101010.13;4907584;28;128329;-62
2022/06/18 02:49:03;;;;;;;;;;;;;;;20.29;41.14;101012.25;4917108;28;129060;-66
2022/06/18 02:51:30;;;;;;;;;;;;;;;20.27;41.17;101013.66;4929540;28;98197;-66
2022/06/18 02:53:57;;;;;;;;;;;;;;;20.23;41.35;101013.50;4929278;28;97782;-62
2022/06/18 02:56:23;;;;;;;;;;;;;;;20.16;41.63;100999.50;4925052;28;105290;-62
2022/06/18 02:58:49;;;;;;;;;;;;;;;20.13;41.80;100997.41;4916242;28;98412;-66
2022/06/18 03:01:20;;;;;;;;;;;;;;;20.11;41.81;101002.38;4908615;28;128101;-62
2022/06/18 03:03:54;;;;;;;;;;;;;;;20.06;41.83;100997.84;4907831;28;97856;-62
2022/06/18 03:06:21;;;;;;;;;;;;;;;20.04;41.97;101000.13;4929722;28;110666;-62
2022/06/18 03:08:49;;;;;;;;;;;;;;;20.01;41.92;101000.75;4922440;28;118846;-64
2022/06/18 03:14:07;;;;;;;;;;;;;;;19.99;41.92;100997.50;4924362;28;98009;-66
2022/06/18 03:16:36;;;;;;;;;;;;;;;19.98;41.87;101001.38;4919345;28;98995;-62
2022/06/18 03:19:02;;;;;;;;;;;;;;;19.98;42.09;101006.06;4909428;28;97742;-66
2022/06/18 03:21:35;;;;;;;;;;;;;;;19.96;41.91;100998.13;4900722;28;109204;-66
2022/06/18 03:24:01;;;;;;;;;;;;;;;19.96;41.96;101002.81;4933370;28;98021;-62
2022/06/18 03:26:27;;;;;;;;;;;;;;;19.94;41.92;100994.94;4908192;28;98905;-67
2022/06/18 03:28:53;;;;;;;;;;;;;;;19.94;41.88;100991.41;4913924;28;121705;-62
2022/06/18 03:31:19;;;;;;;;;;;;;;;19.95;42.05;100993.00;4917250;28;126392;-62
2022/06/18 03:33:46;;;;;;;;;;;;;;;19.93;42.02;100984.31;4912041;28;122965;-62
2022/06/18 03:36:14;;;;;;;;;;;;;;;19.91;41.94;100976.41;4909144;28;98658;-66
2022/06/18 03:38:40;;;;;;;;;;;;;;;19.91;42.07;100979.16;4924325;28;98190;-66
2022/06/18 03:41:08;;;;;;;;;;;;;;;19.92;42.11;100974.47;4906745;28;98377;-66
2022/06/18 03:43:34;;;;;;;;;;;;;;;19.94;41.81;100975.78;4918860;28;97860;-67
2022/06/18 03:46:08;;;;;;;;;;;;;;;19.97;42.03;100977.88;4924127;28;114926;-62
2022/06/18 03:48:42;;;;;;;;;;;;;;;20.00;41.84;100974.53;4923649;28;117271;-67
2022/06/18 03:51:08;;;;;;;;;;;;;;;20.06;41.92;100977.91;4930976;28;98287;-66
2022/06/18 03:53:34;;;;;;;;;;;;;;;20.10;41.95;100976.13;4920923;28;116362;-66
2022/06/18 03:56:00;;;;;;;;;;;;;;;20.15;41.71;100964.22;4918307;28;128850;-62
2022/06/18 03:58:29;;;;;;;;;;;;;;;20.18;41.82;100958.94;4921108;28;127279;-62
2022/06/18 04:00:55;;;;;;;;;;;;;;;20.23;41.63;100952.50;4919893;28;98085;-62
2022/06/18 04:03:21;;;;;;;;;;;;;;;20.26;41.65;100957.31;4906532;28;97976;-62
2022/06/18 04:05:46;;;;;;;;;;;;;;;20.30;41.95;100956.34;4900619;28;127984;-67
2022/06/18 04:08:13;;;;;;;;;;;;;;;20.35;41.66;100952.66;4906080;28;127386;-67
2022/06/18 04:10:39;;;;;;;;;;;;;;;20.37;41.69;100949.63;4920331;28;97931;-66
2022/06/18 04:13:05;;;;;;;;;;;;;;;20.40;41.67;100943.50;4911845;28;97790;-66
2022/06/18 04:15:33;;;;;;;;;;;;;;;20.40;42.01;100938.81;4926292;28;127389;-62
2022/06/18 04:17:59;;;;;;;;;;;;;;;20.43;41.77;100937.34;4926869;28;127060;-67
2022/06/18 04:20:27;;;;;;;;;;;;;;;20.46;41.69;100937.53;4906413;28;125157;-67
2022/06/18 04:22:54;;;;;;;;;;;;;;;20.50;41.78;100940.47;4910376;28;98014;-66
2022/06/18 04:25:20;;;;;;;;;;;;;;;20.56;41.72;100939.97;4916750;28;97876;-66
2022/06/18 04:27:49;;;;;;;;;;;;;;;20.60;41.74;100931.94;4913085;28;97854;-62
2022/06/18 04:30:16;;;;;;;;;;;;;;;20.64;41.87;100932.88;4907026;28;98379;-66
2022/06/18 04:32:45;;;;;;;;;;;;;;;20.68;41.56;100933.03;4911541;28;97871;-67
2022/06/18 04:35:11;;;;;;;;;;;;;;;20.73;41.41;100938.34;4911115;28;128309;-66
2022/06/18 04:37:38;;;;;;;;;;;;;;;20.79;41.30;100935.13;4911610;28;115921;-66
2022/06/18 04:40:04;;;;;;;;;;;;;;;20.87;41.45;100932.66;4916574;28;106714;-66
2022/06/18 04:42:30;;;;;;;;;;;;;;;20.96;41.21;100938.97;4908667;28;101943;-67
2022/06/18 04:44:56;;;;;;;;;;;;;;;21.03;41.18;100933.78;4909383;28;124404;-63
2022/06/18 04:47:22;;;;;;;;;;;;;;;21.12;41.20;100934.56;4927292;28;126477;-68
2022/06/18 04:49:48;;;;;;;;;;;;;;;21.21;40.95;100935.31;4920835;28;127395;-66
2022/06/18 04:52:14;;;;;;;;;;;;;;;21.29;40.74;100939.97;4921891;28;97869;-66
2022/06/18 04:54:40;;;;;;;;;;;;;;;21.39;40.78;100944.34;4920010;28;105186;-67
2022/06/18 04:57:06;;;;;;;;;;;;;;;21.48;40.65;100938.81;4924173;28;119076;-66
2022/06/18 04:59:32;;;;;;;;;;;;;;;21.61;40.59;100931.47;4918975;28;126319;-66
2022/06/18 05:02:05;;;;;;;;;;;;;;;21.73;40.43;100931.56;4917588;28;122291;-66
2022/06/18 05:04:31;;;;;;;;;;;;;;;21.85;40.17;100928.94;4921808;28;99084;-66
2022/06/18 05:06:57;;;;;;;;;;;;;;;21.98;40.27;100921.59;4924309;28;127785;-66
2022/06/18 05:09:23;;;;;;;;;;;;;;;22.09;40.03;100917.31;4922490;28;127614;-62
2022/06/18 05:11:49;;;;;;;;;;;;;;;22.22;39.84;100910.78;4916806;28;119881;-68
2022/06/18 05:14:15;;;;;;;;;;;;;;;22.34;39.79;100914.75;4918786;28;126812;-61
2022/06/18 05:16:42;;;;;;;;;;;;;;;22.49;39.35;100922.38;4918307;28;127874;-67
2022/06/18 05:19:24;;;;;;;;;;;;;;;22.66;39.40;100919.44;4906528;28;99878;-66
2022/06/18 05:21:50;;;;;;;;;;;;;;;22.86;39.07;100917.78;4918469;28;97919;-62
2022/06/18 05:24:19;;;;;;;;;;;;;;;23.06;38.87;100910.66;4916446;28;98569;-61
2022/06/18 05:26:50;;;;;;;;;;;;;;;23.28;38.49;100914.94;4923413;28;114059;-62
2022/06/18 05:29:16;;;;;;;;;;;;;;;23.51;38.16;100907.84;4917838;28;97923;-67
2022/06/18 05:31:45;;;;;;;;;;;;;;;23.74;37.99;100899.94;4921594;28;98499;-62
2022/06/18 05:34:11;;;;;;;;;;;;;;;24.00;37.45;100901.50;4923611;28;98208;-66
2022/06/18 05:36:37;;;;;;;;;;;;;;;24.24;36.85;100898.66;4917886;28;99026;-67
2022/06/18 05:39:04;;;;;;;;;;;;;;;24.55;36.44;100904.66;4918029;28;126803;-68
2022/06/18 05:41:30;;;;;;;;;;;;;;;24.86;36.30;100906.69;4926969;28;98670;-68
2022/06/18 05:43:56;;;;;;;;;;;;;;;25.23;36.21;100896.28;4919042;28;99269;-66
2022/06/18 05:46:22;;;;;;;;;;;;;;;25.88;35.39;100901.34;4923839;28;102030;-67
2022/06/18 05:48:48;;;;;;;;;;;;;;;28.24;32.90;100900.75;4916573;28;109086;-64
2022/06/18 05:51:14;;;;;;;;;;;;;;;29.94;31.31;100904.69;4911431;28;98081;-65
2022/06/18 05:53:40;;;;;;;;;;;;;;;31.42;30.28;100913.84;4913270;28;128305;-65
2022/06/18 05:56:06;;;;;;;;;;;;;;;32.75;29.35;100917.00;4912463;28;128321;-65
2022/06/18 05:58:32;;;;;;;;;;;;;;;33.90;28.02;100914.84;4912213;28;98196;-65
2022/06/18 06:00:58;;;;;;;;;;;;;;;33.82;28.49;100912.56;4920351;28;98273;-64
2022/06/18 06:03:24;;;;;;;;;;;;;;;33.70;28.56;100900.69;4917293;28;127943;-60
2022/06/18 06:05:50;;;;;;;;;;;;;;;34.57;27.94;100897.66;4917980;28;126821;-64
2022/06/18 06:08:16;;;;;;;;;;;;;;;36.51;25.00;100898.56;4919155;28;127517;-64
2022/06/18 06:13:27;;;;;;;;;;;;;;;37.63;23.77;100889.78;4916764;28;98183;-64
2022/06/18 06:15:53;;;;;;;;;;;;;;;36.82;24.54;100885.00;4911011;28;119341;-64
2022/06/18 06:18:20;;;;;;;;;;;;;;;38.00;22.98;100876.31;4915204;28;98612;-61
2022/06/18 06:20:47;;;;;;;;;;;;;;;38.47;22.38;100875.72;4918766;28;120961;-60
2022/06/18 06:23:13;;;;;;;;;;;;;;;37.93;22.79;100874.50;4915536;28;98604;-61
2022/06/18 06:25:40;;;;;;;;;;;;;;;39.23;21.38;100866.44;4915222;28;104990;-60
2022/06/18 06:28:09;;;;;;;;;;;;;;;38.83;21.96;100864.13;4917017;28;97885;-64
2022/06/18 06:30:35;;;;;;;;;;;;;;;39.02;21.94;100865.09;4917975;28;98040;-61
2022/06/18 06:33:01;;;;;;;;;;;;;;;38.92;21.67;100855.00;4915399;28;99918;-64
2022/06/18 06:35:27;;;;;;;;;;;;;;;39.11;21.03;100851.09;4906509;28;127781;-61
2022/06/18 06:37:53;;;;;;;;;;;;;;;38.73;20.99;100843.50;4918243;28;98038;-61
2022/06/18 06:40:19;;;;;;;;;;;;;;;38.25;21.43;100834.16;4919411;28;97828;-64
2022/06/18 06:42:49;;;;;;;;;;;;;;;37.83;21.60;100831.38;4916111;28;98917;-64
2022/06/18 06:45:17;;;;;;;;;;;;;;;37.38;21.72;100837.06;4910577;28;128145;-61
2022/06/18 06:47:44;;;;;;;;;;;;;;;37.14;21.86;100833.69;4917025;28;125109;-64
2022/06/18 06:50:12;;;;;;;;;;;;;;;36.92;22.39;100822.19;4918723;28;98232;-64
2022/06/18 06:52:38;;;;;;;;;;;;;;;36.77;22.33;100829.41;4915780;28;99929;-60
2022/06/18 06:57:51;;;;;;;;;;;;;;;36.45;22.16;100816.91;4916647;28;97909;-60
2022/06/18 07:00:17;;;;;;;;;;;;;;;36.41;22.19;100818.22;4918338;28;123079;-60
2022/06/18 07:02:43;;;;;;;;;;;;;;;36.36;21.86;100814.72;4917737;28;98553;-60
2022/06/18 07:05:10;;;;;;;;;;;;;;;36.38;21.66;100809.44;4908828;28;98202;-64
2022/06/18 07:07:36;;;;;;;;;;;;;;;36.42;22.09;100811.38;4915194;28;124626;-60
2022/06/18 07:10:02;;;;;;;;;;;;;;;36.52;22.15;100807.56;4915865;28;122746;-64
2022/06/18 07:12:28;;;;;;;;;;;;;;;36.61;22.12;100808.53;4910827;28;129185;-60
2022/06/18 07:14:54;;;;;;;;;;;;;;;36.72;22.21;100799.06;4916447;28;99080;-64
2022/06/18 07:17:20;;;;;;;;;;;;;;;36.82;22.44;100793.16;4917094;28;127420;-60
2022/06/18 07:19:46;;;;;;;;;;;;;;;36.96;21.67;100791.25;4917604;28;98290;-60
2022/06/18 07:22:13;;;;;;;;;;;;;;;37.03;21.43;100780.63;4917722;28;125960;-64
2022/06/18 07:24:40;;;;;;;;;;;;;;;37.04;21.50;100785.00;4913058;28;98262;-60
2022/06/18 07:27:06;;;;;;;;;;;;;;;37.12;21.58;100787.63;4917988;28;97951;-64
2022/06/18 07:29:32;;;;;;;;;;;;;;;37.24;21.48;100784.84;4917255;28;109867;-65
2022/06/18 07:32:15;;;;;;;;;;;;;;;37.38;21.96;100769.63;4916312;28;128804;-64
2022/06/18 07:34:41;;;;;;;;;;;;;;;37.57;21.19;100773.50;4916102;28;98210;-64
2022/06/18 07:37:07;;;;;;;;;;;;;;;37.73;20.63;100770.63;4916277;28;127742;-61
2022/06/18 07:39:33;;;;;;;;;;;;;;;37.83;20.79;100768.72;4911458;28;119559;-64
2022/06/18 07:41:59;;;;;;;;;;;;;;;37.94;21.27;100757.19;4917480;28;116716;-60
2022/06/18 07:44:25;;;;;;;;;;;;;;;38.10;20.89;100757.06;4903944;28;128070;-60
2022/06/18 07:46:52;;;;;;;;;;;;;;;38.34;20.74;100751.13;4917289;28;118900;-60
2022/06/18 07:49:18;;;;;;;;;;;;;;;38.63;20.75;100748.91;4918329;28;98202;-65
2022/06/18 07:51:44;;;;;;;;;;;;;;;38.95;20.61;100752.69;4913889;28;126826;-60
2022/06/18 07:54:13;;;;;;;;;;;;;;;39.27;20.14;100748.72;4916805;28;98757;-61
2022/06/18 07:56:39;;;;;;;;;;;;;;;39.63;20.34;100748.16;4910193;28;98289;-61
2022/06/18 07:59:05;;;;;;;;;;;;;;;40.02;19.96;100750.72;4914574;28;106744;-60
2022/06/18 08:01:31;;;;;;;;;;;;;;;40.41;19.31;100752.75;4917219;28;97949;-65
2022/06/18 08:03:57;;;;;;;;;;;;;;;40.76;18.86;100751.72;4909856;28;98641;-61
2022/06/18 08:06:23;;;;;;;;;;;;;;;41.03;18.88;100743.25;4915904;28;97818;-60
2022/06/18 08:08:49;;;;;;;;;;;;;;;41.36;18.58;100745.44;4916140;28;98144;-66
2022/06/18 08:11:15;;;;;;;;;;;;;;;41.68;18.45;100735.47;4915233;28;128446;-66
2022/06/18 08:13:41;;;;;;;;;;;;;;;42.06;18.76;100732.03;4889354;28;98293;-65
2022/06/18 08:16:07;;;;;;;;;;;;;;;42.57;18.35;100727.50;4915637;28;98139;-65
2022/06/18 08:18:33;;;;;;;;;;;;;;;42.98;17.93;100725.00;4915084;28;99015;-60
2022/06/18 08:21:08;;;;;;;;;;;;;;;43.48;17.85;100725.94;4915583;28;98764;-65
2022/06/18 08:23:34;;;;;;;;;;;;;;;43.99;17.16;100721.88;4910697;28;119427;-65
2022/06/18 08:26:00;;;;;;;;;;;;;;;44.36;17.27;100724.19;4913957;28;105599;-65
2022/06/18 08:28:26;;;;;;;;;;;;;;;44.78;17.09;100720.09;4916018;28;122687;-65
2022/06/18 08:30:52;;;;;;;;;;;;;;;45.24;16.66;100724.97;4914560;28;127553;-61
2022/06/18 08:33:18;;;;;;;;;;;;;;;45.68;16.67;100710.34;4913403;28;126806;-61
2022/06/18 08:35:43;;;;;;;;;;;;;;;45.81;15.51;100709.94;4916132;28;97910;-65
2022/06/18 08:38:09;;;;;;;;;;;;;;;46.10;15.84;100693.81;4908858;28;121627;-61
2022/06/18 08:41:08;;;;;;;;;;;;;;;46.43;15.70;100688.28;4911583;28;98185;-66
2022/06/18 08:44:15;;;;;;;;;;;;;;;46.85;15.69;100689.47;4913106;28;98117;-61
2022/06/18 08:46:50;;;;;;;;;;;;;;;47.29;15.29;100690.06;4887854;28;97922;-61
2022/06/18 08:49:30;;;;;;;;;;;;;;;47.78;14.86;100684.84;4869673;28;101566;-61
2022/06/18 08:52:09;;;;;;;;;;;;;;;48.26;14.71;100684.44;4898557;28;123594;-61
2022/06/18 08:54:59;;;;;;;;;;;;;;;48.49;14.43;100685.13;4913268;28;114773;-61
2022/06/18 08:57:30;;;;;;;;;;;;;;;48.92;14.61;100682.53;4848942;28;1891613;-65
2022/06/18 09:00:02;;;;;;;;;;;;;;;49.33;14.53;100676.00;4918110;28;97903;-66
2022/06/18 09:02:33;;;;;;;;;;;;;;;49.78;14.09;100678.44;4917280;28;98700;-65
2022/06/18 09:05:06;;;;;;;;;;;;;;;50.16;14.01;100667.09;4914406;28;126426;-61
2022/06/18 09:07:43;;;;;;;;;;;;;;;50.50;13.91;100678.09;4899598;28;102052;-66
2022/06/18 09:10:20;;;;;;;;;;;;;;;50.72;13.61;100669.19;4916050;28;118516;-61
2022/06/18 09:12:55;;;;;;;;;;;;;;;51.05;13.70;100661.41;4915276;28;124392;-66
2022/06/18 09:15:28;;;;;;;;;;;;;;;51.13;13.30;100652.91;4915841;28;119231;-65
2022/06/18 09:18:19;;;;;;;;;;;;;;;51.15;13.28;100656.03;4911012;28;97943;-65
2022/06/18 09:21:00;;;;;;;;;;;;;;;51.31;13.43;100657.84;4917095;28;121693;-61
2022/06/18 09:23:31;;;;;;;;;;;;;;;51.21;13.68;100648.84;4892903;28;129070;-65
2022/06/18 09:25:58;;;;;;;;;;;;;;;50.73;13.37;100635.56;4906532;28;119784;-66
2022/06/18 09:28:27;;;;;;;;;;;;;;;50.29;13.83;100634.91;4913435;28;97900;-65
2022/06/18 09:31:05;;;;;;;;;;;;;;;49.84;13.90;100626.88;4917740;28;98276;-66
2022/06/18 09:33:38;;;;;;;;;;;;;;;49.47;13.98;100630.34;4916224;28;98836;-65
2022/06/18 09:36:10;;;;;;;;;;;;;;;49.26;14.35;100619.38;4912640;28;124773;-65
2022/06/18 09:38:38;;;;;;;;;;;;;;;49.42;14.14;100631.97;4909129;28;124184;-61
2022/06/18 09:41:16;;;;;;;;;;;;;;;49.69;14.11;100626.50;4914074;28;112369;-66
2022/06/18 09:43:50;;;;;;;;;;;;;;;50.15;13.97;100608.22;4899785;28;110044;-61
2022/06/18 09:46:25;;;;;;;;;;;;;;;50.69;13.41;100607.22;4911876;28;121070;-61
2022/06/18 09:48:51;;;;;;;;;;;;;;;51.24;13.26;100613.34;4915621;28;122759;-66
2022/06/18 09:51:31;;;;;;;;;;;;;;;51.72;12.95;100614.28;4913897;28;122251;-65
2022/06/18 09:54:03;;;;;;;;;;;;;;;52.31;12.83;100613.31;4899989;28;99371;-66
2022/06/18 09:56:35;;;;;;;;;;;;;;;52.82;12.33;100605.03;4912536;28;101570;-62
2022/06/18 09:59:07;;;;;;;;;;;;;;;53.08;12.31;100606.25;4914513;28;97700;-66
2022/06/18 10:01:44;;;;;;;;;;;;;;;53.32;12.37;100597.22;4914576;28;113048;-66
2022/06/18 10:07:00;;;;;;;;;;;;;;;53.78;11.86;100586.00;4893400;28;98056;-67
2022/06/18 10:09:42;;;;;;;;;;;;;;;53.92;11.92;100580.88;4908796;28;111478;-66
2022/06/18 10:12:21;;;;;;;;;;;;;;;54.06;11.46;100587.28;4920978;28;99363;-65
2022/06/18 10:14:53;;;;;;;;;;;;;;;54.11;12.08;100586.31;4913830;28;97989;-61
2022/06/18 10:17:29;;;;;;;;;;;;;;;54.16;11.56;100583.28;4910751;28;98561;-62
2022/06/18 10:20:07;;;;;;;;;;;;;;;54.27;11.87;100585.03;4914379;28;98214;-66
2022/06/18 10:23:09;;;;;;;;;;;;;;;54.44;11.48;100575.88;4917702;28;98120;-66
2022/06/18 10:25:45;;;;;;;;;;;;;;;54.58;11.88;100574.34;4913595;28;113647;-65
2022/06/18 10:28:35;;;;;;;;;;;;;;;54.68;11.45;100565.91;4897034;28;99284;-66
2022/06/18 10:31:11;;;;;;;;;;;;;;;54.64;11.20;100565.53;4916155;28;105392;-62
2022/06/18 10:34:03;;;;;;;;;;;;;;;54.59;11.38;100569.34;4912086;28;116597;-66
2022/06/18 10:36:57;;;;;;;;;;;;;;;54.69;11.22;100561.69;4915487;28;98226;-62
2022/06/18 10:40:02;;;;;;;;;;;;;;;54.79;11.65;100556.09;4936871;28;98477;-62
2022/06/18 10:43:03;;;;;;;;;;;;;;;54.81;11.12;100556.28;4917940;28;97807;-62
2022/06/18 10:45:48;;;;;;;;;;;;;;;54.94;11.47;100541.69;4857461;28;98585;-62
2022/06/18 10:48:22;;;;;;;;;;;;;;;54.94;11.20;100552.44;4908490;28;98828;-62
2022/06/18 10:50:50;;;;;;;;;;;;;;;54.97;11.08;100546.28;4901174;28;119347;-66
2022/06/18 10:53:17;;;;;;;;;;;;;;;55.00;11.20;100532.84;4914830;28;114049;-66
2022/06/18 10:55:43;;;;;;;;;;;;;;;54.93;11.31;100530.72;4915651;28;98000;-62
2022/06/18 10:58:14;;;;;;;;;;;;;;;54.96;10.93;100536.13;4911916;28;98419;-66
2022/06/18 11:00:47;;;;;;;;;;;;;;;54.86;11.00;100538.81;4918787;28;98784;-62
2022/06/18 11:03:20;;;;;;;;;;;;;;;54.74;11.02;100540.53;4909927;28;106501;-62
2022/06/18 11:05:47;;;;;;;;;;;;;;;54.81;11.39;100528.22;4917934;28;98428;-62
2022/06/18 11:08:26;;;;;;;;;;;;;;;54.76;11.31;100525.53;4913641;28;98390;-62
2022/06/18 11:10:57;;;;;;;;;;;;;;;54.61;11.36;100527.06;4902841;28;100794;-62
2022/06/18 11:13:28;;;;;;;;;;;;;;;54.48;10.97;100520.69;4916211;28;98100;-62
2022/06/18 11:16:17;;;;;;;;;;;;;;;54.26;11.36;100508.59;4918628;28;98019;-62
2022/06/18 11:18:59;;;;;;;;;;;;;;;54.07;11.69;100522.53;4917160;28;130613;-62
2022/06/18 11:21:36;;;;;;;;;;;;;;;53.91;11.01;100511.00;4912497;28;98931;-62
2022/06/18 11:24:18;;;;;;;;;;;;;;;53.68;11.67;100516.66;4910890;28;109626;-62
2022/06/18 11:26:55;;;;;;;;;;;;;;;53.44;11.35;100514.97;4915186;28;119578;-62
2022/06/18 11:29:43;;;;;;;;;;;;;;;53.31;12.02;100512.25;4917100;28;99236;-62
2022/06/18 11:32:19;;;;;;;;;;;;;;;53.10;12.18;100500.78;4917031;28;98385;-62
2022/06/18 11:34:48;;;;;;;;;;;;;;;52.94;12.24;100499.94;4916435;28;127622;-63
2022/06/18 11:37:22;;;;;;;;;;;;;;;52.74;11.72;100503.56;4908995;28;122060;-67
2022/06/18 11:39:57;;;;;;;;;;;;;;;52.39;11.67;100494.25;4912800;28;97931;-67
2022/06/18 11:42:44;;;;;;;;;;;;;;;51.88;12.32;100488.13;4919966;28;98132;-67
2022/06/18 11:45:35;;;;;;;;;;;;;;;51.27;12.24;100476.66;4915528;28;98370;-62
2022/06/18 11:48:15;;;;;;;;;;;;;;;50.76;12.74;100474.72;4928750;28;98050;-66
2022/06/18 11:50:48;;;;;;;;;;;;;;;50.37;13.12;100475.38;4915305;28;126295;-66
2022/06/18 11:53:21;;;;;;;;;;;;;;;50.13;13.22;100473.38;4895860;28;127552;-67
2022/06/18 11:55:53;;;;;;;;;;;;;;;49.82;13.49;100478.50;4908768;28;100544;-66
2022/06/18 11:58:40;;;;;;;;;;;;;;;49.66;13.70;100473.03;4918369;28;98034;-68
2022/06/18 12:01:35;;;;;;;;;;;;;;;49.62;13.81;100471.25;4917388;28;101428;-63
2022/06/18 12:04:09;;;;;;;;;;;;;;;49.58;13.73;100467.16;4899996;28;97901;-63
2022/06/18 12:06:52;;;;;;;;;;;;;;;49.60;13.71;100473.09;4907769;28;124212;-63
2022/06/18 12:09:18;;;;;;;;;;;;;;;49.57;13.54;100474.97;4909530;28;98425;-67
2022/06/18 12:11:50;;;;;;;;;;;;;;;49.54;13.68;100467.44;4918386;28;98518;-68
2022/06/18 12:14:31;;;;;;;;;;;;;;;49.48;13.63;100457.34;4917864;28;98249;-67
2022/06/18 12:17:17;;;;;;;;;;;;;;;49.29;13.72;100458.13;4920318;28;98451;-67
2022/06/18 12:19:54;;;;;;;;;;;;;;;49.15;13.49;100436.44;4913317;28;98235;-67
2022/06/18 12:22:42;;;;;;;;;;;;;;;49.03;13.62;100452.94;4915215;28;99301;-67
2022/06/18 12:25:36;;;;;;;;;;;;;;;48.92;13.89;100453.81;4917617;28;98714;-67
2022/06/18 12:28:17;;;;;;;;;;;;;;;48.94;14.12;100443.97;4913555;28;109295;-63
2022/06/18 12:30:51;;;;;;;;;;;;;;;48.93;13.94;100428.88;4920139;28;98011;-62
2022/06/18 12:33:27;;;;;;;;;;;;;;;48.86;13.92;100418.06;4915792;28;124246;-63
2022/06/18 12:36:14;;;;;;;;;;;;;;;48.57;13.95;100426.09;4910879;28;113954;-67
2022/06/18 12:39:16;;;;;;;;;;;;;;;48.41;13.92;100427.81;4919788;28;98219;-63
2022/06/18 12:41:59;;;;;;;;;;;;;;;48.31;14.50;100425.81;4914721;28;98104;-63
2022/06/18 12:44:44;;;;;;;;;;;;;;;48.19;14.28;100423.03;4895678;28;124262;-67
2022/06/18 12:47:43;;;;;;;;;;;;;;;48.05;14.29;100412.00;4910854;28;98300;-67
2022/06/18 12:50:26;;;;;;;;;;;;;;;47.82;14.41;100419.91;4913078;28;98311;-67
2022/06/18 12:53:10;;;;;;;;;;;;;;;47.73;14.86;100423.09;4917261;28;98897;-63
2022/06/18 12:55:41;;;;;;;;;;;;;;;47.63;14.65;100411.16;4910536;28;98825;-63
2022/06/18 12:58:35;;;;;;;;;;;;;;;47.54;14.37;100405.78;4915214;28;98858;-63
2022/06/18 13:01:24;;;;;;;;;;;;;;;47.19;14.39;100404.34;4895538;28;119166;-67
2022/06/18 13:04:11;;;;;;;;;;;;;;;46.87;14.75;100393.28;4913335;28;97996;-62
2022/06/18 13:06:55;;;;;;;;;;;;;;;46.59;14.82;100396.22;4912688;28;99036;-66
2022/06/18 13:09:35;;;;;;;;;;;;;;;46.36;14.85;100400.34;4912822;28;98237;-63
2022/06/18 13:12:30;;;;;;;;;;;;;;;46.13;15.04;100386.06;4917444;28;122350;-63